createdAt,value
2023-05-14T00:00:26.392Z,13.21
2023-05-14T00:00:57.882Z,13.21
2023-05-14T00:01:29.363Z,13.22
2023-05-14T00:02:00.813Z,13.21
2023-05-14T00:02:32.305Z,13.22
2023-05-14T00:03:04.156Z,13.23
2023-05-14T00:03:36.981Z,13.22
2023-05-14T00:04:08.662Z,13.21
2023-05-14T00:04:40.989Z,13.19
2023-05-14T00:05:12.537Z,13.17
2023-05-14T00:05:43.912Z,13.16
2023-05-14T00:06:16.094Z,13.17
2023-05-14T00:06:47.441Z,13.18
2023-05-14T00:07:19.033Z,13.18
2023-05-14T00:07:50.603Z,13.17
2023-05-14T00:08:22.080Z,13.17
2023-05-14T00:08:53.550Z,13.16
2023-05-14T00:09:25.094Z,13.13
2023-05-14T00:09:57.543Z,13.12
2023-05-14T00:10:29.013Z,13.10
2023-05-14T00:11:00.496Z,13.09
2023-05-14T00:11:31.955Z,13.05
2023-05-14T00:12:03.632Z,13.04
2023-05-14T00:12:35.069Z,13.03
2023-05-14T00:13:06.453Z,13.02
2023-05-14T00:13:37.998Z,13.01
2023-05-14T00:14:09.508Z,13.01
2023-05-14T00:14:40.994Z,13.01
2023-05-14T00:15:12.598Z,13.00
2023-05-14T00:15:44.481Z,13.01
2023-05-14T00:16:16.092Z,12.99
2023-05-14T00:16:47.791Z,12.99
2023-05-14T00:17:19.435Z,12.98
2023-05-14T00:17:50.854Z,12.97
2023-05-14T00:18:22.353Z,12.98
2023-05-14T00:18:53.842Z,12.99
2023-05-14T00:19:26.530Z,12.98
2023-05-14T00:19:59.436Z,12.96
2023-05-14T00:20:30.786Z,12.94
2023-05-14T00:21:02.139Z,12.92
2023-05-14T00:21:33.578Z,12.89
2023-05-14T00:22:05.233Z,12.86
2023-05-14T00:22:37.174Z,12.84
2023-05-14T00:23:08.865Z,12.81
2023-05-14T00:23:40.430Z,12.77
2023-05-14T00:24:11.981Z,12.72
2023-05-14T00:24:43.395Z,12.70
2023-05-14T00:25:14.881Z,12.68
2023-05-14T00:25:46.248Z,12.68
2023-05-14T00:26:17.640Z,12.69
2023-05-14T00:26:49.539Z,12.70
2023-05-14T00:27:21.146Z,12.68
2023-05-14T00:27:52.543Z,12.67
2023-05-14T00:28:23.954Z,12.68
2023-05-14T00:28:55.757Z,12.68
2023-05-14T00:29:27.181Z,12.69
2023-05-14T00:29:58.603Z,12.70
2023-05-14T00:30:30.039Z,12.74
2023-05-14T00:31:01.412Z,12.73
2023-05-14T00:31:33.144Z,12.72
2023-05-14T00:32:05.032Z,12.70
2023-05-14T00:32:36.483Z,12.71
2023-05-14T00:33:08.144Z,12.71
2023-05-14T00:33:39.830Z,12.72
2023-05-14T00:34:11.193Z,12.71
2023-05-14T00:34:42.810Z,12.72
2023-05-14T00:35:14.269Z,12.71
2023-05-14T00:35:45.736Z,12.70
2023-05-14T00:36:17.269Z,12.68
2023-05-14T00:36:51.563Z,12.69
2023-05-14T00:37:22.985Z,12.69
2023-05-14T00:37:55.148Z,12.70
2023-05-14T00:38:28.651Z,12.72
2023-05-14T00:39:00.075Z,12.73
2023-05-14T00:39:31.492Z,12.73
2023-05-14T00:40:03.676Z,12.75
2023-05-14T00:40:35.222Z,12.74
2023-05-14T00:41:06.649Z,12.75
2023-05-14T00:41:38.323Z,12.75
2023-05-14T00:42:09.750Z,12.74
2023-05-14T00:42:41.198Z,12.74
2023-05-14T00:43:12.647Z,12.74
2023-05-14T00:43:44.097Z,12.72
2023-05-14T00:44:15.521Z,12.73
2023-05-14T00:44:46.958Z,12.73
2023-05-14T00:45:18.626Z,12.72
2023-05-14T00:45:51.692Z,12.73
2023-05-14T00:46:23.106Z,12.73
2023-05-14T00:46:54.860Z,12.70
2023-05-14T00:47:26.973Z,12.71
2023-05-14T00:47:58.550Z,12.71
2023-05-14T00:48:30.399Z,12.68
2023-05-14T00:49:01.893Z,12.67
2023-05-14T00:49:34.171Z,12.65
2023-05-14T00:50:06.570Z,12.65
2023-05-14T00:50:38.454Z,12.61
2023-05-14T00:51:10.345Z,12.60
2023-05-14T00:51:42.222Z,12.60
2023-05-14T00:52:15.343Z,12.59
2023-05-14T00:52:47.700Z,12.61
2023-05-14T00:53:19.563Z,12.61
2023-05-14T00:53:52.208Z,12.59
2023-05-14T00:54:23.656Z,12.58
2023-05-14T00:54:55.760Z,12.56
2023-05-14T00:55:29.995Z,12.55
2023-05-14T00:56:02.432Z,12.56
2023-05-14T00:56:35.231Z,12.57
2023-05-14T00:57:06.847Z,12.57
2023-05-14T00:57:38.861Z,12.58
2023-05-14T00:58:12.148Z,12.58
2023-05-14T00:58:43.806Z,12.60
2023-05-14T00:59:15.259Z,12.59
2023-05-14T00:59:46.768Z,12.60
2023-05-14T01:00:18.453Z,12.59
2023-05-14T01:00:50.071Z,12.57
2023-05-14T01:01:21.980Z,12.59
2023-05-14T01:01:53.965Z,12.58
2023-05-14T01:02:25.583Z,12.58
2023-05-14T01:02:57.404Z,12.58
2023-05-14T01:03:33.675Z,12.57
2023-05-14T01:04:07.196Z,12.58
2023-05-14T01:04:39.615Z,12.58
2023-05-14T01:05:11.109Z,12.58
2023-05-14T01:06:04.225Z,12.59
2023-05-14T01:07:06.913Z,12.57
2023-05-14T01:07:54.313Z,12.55
2023-05-14T01:08:36.369Z,12.53
2023-05-14T01:09:23.416Z,12.52
2023-05-14T01:10:03.006Z,12.51
2023-05-14T01:11:04.843Z,12.50
2023-05-14T01:11:43.682Z,12.49
2023-05-14T01:12:34.583Z,12.45
2023-05-14T01:13:18.370Z,12.43
2023-05-14T01:13:55.817Z,12.39
2023-05-14T01:14:36.872Z,12.38
2023-05-14T01:15:16.615Z,12.37
2023-05-14T01:15:49.197Z,12.37
2023-05-14T01:16:22.253Z,12.36
2023-05-14T01:16:58.893Z,12.35
2023-05-14T01:17:36.721Z,12.35
2023-05-14T01:18:11.107Z,12.36
2023-05-14T01:18:43.989Z,12.34
2023-05-14T01:19:37.459Z,12.33
2023-05-14T01:20:10.498Z,12.31
2023-05-14T01:20:42.259Z,12.31
2023-05-14T01:21:40.765Z,12.31
2023-05-14T01:22:12.509Z,12.31
2023-05-14T01:22:44.022Z,12.30
2023-05-14T01:23:15.512Z,12.28
2023-05-14T01:23:47.125Z,12.29
2023-05-14T01:24:18.528Z,12.30
2023-05-14T01:24:49.938Z,12.31
2023-05-14T01:25:21.470Z,12.32
2023-05-14T01:25:52.907Z,12.32
2023-05-14T01:26:24.302Z,12.31
2023-05-14T01:27:04.102Z,12.31
2023-05-14T01:27:54.095Z,12.31
2023-05-14T01:28:32.813Z,12.32
2023-05-14T01:29:10.715Z,12.32
2023-05-14T01:29:45.455Z,12.30
2023-05-14T01:30:28.397Z,12.29
2023-05-14T01:31:18.733Z,12.28
2023-05-14T01:31:51.476Z,12.30
2023-05-14T01:32:24.510Z,12.30
2023-05-14T01:33:00.370Z,12.28
2023-05-14T01:33:33.956Z,12.28
2023-05-14T01:34:07.465Z,12.27
2023-05-14T01:34:39.772Z,12.26
2023-05-14T01:35:11.625Z,12.26
2023-05-14T01:35:43.475Z,12.25
2023-05-14T01:36:15.329Z,12.24
2023-05-14T01:36:48.145Z,12.24
2023-05-14T01:37:19.971Z,12.24
2023-05-14T01:37:55.221Z,12.25
2023-05-14T01:38:30.302Z,12.24
2023-05-14T01:39:03.780Z,12.24
2023-05-14T01:39:37.819Z,12.22
2023-05-14T01:40:10.873Z,12.20
2023-05-14T01:40:43.765Z,12.18
2023-05-14T01:41:18.089Z,12.16
2023-05-14T01:41:51.089Z,12.16
2023-05-14T01:42:23.250Z,12.16
2023-05-14T01:42:55.344Z,12.17
2023-05-14T01:43:27.306Z,12.17
2023-05-14T01:43:59.149Z,12.16
2023-05-14T01:44:30.900Z,12.16
2023-05-14T01:45:02.805Z,12.14
2023-05-14T01:45:36.410Z,12.11
2023-05-14T01:46:07.940Z,12.10
2023-05-14T01:46:39.517Z,12.11
2023-05-14T01:47:10.874Z,12.09
2023-05-14T01:47:42.267Z,12.08
2023-05-14T01:48:13.784Z,12.09
2023-05-14T01:48:45.415Z,12.09
2023-05-14T01:49:18.146Z,12.09
2023-05-14T01:49:49.776Z,12.09
2023-05-14T01:50:21.815Z,12.07
2023-05-14T01:50:53.419Z,12.06
2023-05-14T01:51:25.292Z,12.06
2023-05-14T01:51:56.766Z,12.06
2023-05-14T01:52:28.191Z,12.06
2023-05-14T01:52:59.695Z,12.06
2023-05-14T01:53:31.119Z,12.05
2023-05-14T01:54:02.514Z,12.04
2023-05-14T01:54:34.278Z,12.02
2023-05-14T01:55:06.288Z,12.03
2023-05-14T01:55:37.990Z,12.00
2023-05-14T01:56:09.411Z,11.99
2023-05-14T01:56:41.003Z,11.97
2023-05-14T01:57:12.557Z,11.97
2023-05-14T01:57:43.993Z,11.96
2023-05-14T01:58:15.365Z,11.97
2023-05-14T01:58:46.809Z,11.98
2023-05-14T01:59:18.260Z,11.98
2023-05-14T01:59:49.603Z,11.98
2023-05-14T02:00:24.303Z,11.99
2023-05-14T02:00:55.981Z,11.99
2023-05-14T02:01:27.779Z,12.00
2023-05-14T02:01:59.280Z,11.99
2023-05-14T02:02:31.020Z,11.99
2023-05-14T02:03:02.488Z,12.00
2023-05-14T02:03:34.024Z,12.00
2023-05-14T02:04:05.552Z,12.00
2023-05-14T02:04:36.962Z,12.00
2023-05-14T02:05:09.447Z,12.00
2023-05-14T02:05:40.871Z,12.01
2023-05-14T02:06:12.292Z,12.02
2023-05-14T02:06:43.711Z,12.01
2023-05-14T02:07:16.072Z,12.00
2023-05-14T02:07:47.474Z,12.00
2023-05-14T02:08:18.835Z,11.99
2023-05-14T02:08:50.238Z,11.98
2023-05-14T02:09:21.791Z,11.98
2023-05-14T02:09:53.227Z,11.98
2023-05-14T02:10:24.849Z,11.98
2023-05-14T02:10:56.479Z,11.97
2023-05-14T02:11:28.055Z,11.96
2023-05-14T02:11:59.529Z,11.96
2023-05-14T02:12:30.934Z,11.97
2023-05-14T02:13:03.770Z,11.97
2023-05-14T02:13:36.130Z,11.97
2023-05-14T02:14:07.685Z,11.96
2023-05-14T02:14:39.157Z,11.96
2023-05-14T02:15:11.165Z,11.94
2023-05-14T02:15:42.799Z,11.94
2023-05-14T02:16:14.169Z,11.93
2023-05-14T02:16:45.569Z,11.93
2023-05-14T02:17:17.847Z,11.93
2023-05-14T02:17:49.240Z,11.91
2023-05-14T02:18:20.725Z,11.93
2023-05-14T02:18:52.252Z,11.92
2023-05-14T02:19:24.267Z,11.92
2023-05-14T02:19:55.724Z,11.92
2023-05-14T02:20:27.433Z,11.93
2023-05-14T02:20:58.928Z,11.93
2023-05-14T02:21:30.723Z,11.95
2023-05-14T02:22:02.132Z,11.93
2023-05-14T02:22:33.530Z,11.94
2023-05-14T02:23:04.973Z,11.92
2023-05-14T02:23:41.667Z,11.89
2023-05-14T02:24:13.672Z,11.88
2023-05-14T02:24:45.143Z,11.86
2023-05-14T02:25:16.592Z,11.88
2023-05-14T02:25:48.164Z,11.86
2023-05-14T02:26:20.104Z,11.87
2023-05-14T02:26:51.481Z,11.86
2023-05-14T02:27:22.855Z,11.86
2023-05-14T02:27:54.241Z,11.85
2023-05-14T02:28:25.908Z,11.84
2023-05-14T02:28:57.382Z,11.83
2023-05-14T02:29:29.247Z,11.79
2023-05-14T02:30:00.829Z,11.77
2023-05-14T02:30:32.358Z,11.73
2023-05-14T02:31:03.762Z,11.72
2023-05-14T02:31:35.293Z,11.70
2023-05-14T02:32:07.202Z,11.68
2023-05-14T02:32:38.751Z,11.69
2023-05-14T02:33:10.379Z,11.69
2023-05-14T02:33:41.911Z,11.67
2023-05-14T02:34:13.345Z,11.68
2023-05-14T02:34:44.707Z,11.70
2023-05-14T02:35:16.429Z,11.70
2023-05-14T02:35:47.786Z,11.70
2023-05-14T02:36:19.194Z,11.71
2023-05-14T02:36:50.612Z,11.71
2023-05-14T02:37:22.364Z,11.71
2023-05-14T02:37:54.469Z,11.71
2023-05-14T02:38:27.002Z,11.72
2023-05-14T02:38:59.620Z,11.72
2023-05-14T02:39:31.015Z,11.69
2023-05-14T02:40:02.490Z,11.67
2023-05-14T02:40:33.964Z,11.68
2023-05-14T02:41:05.394Z,11.63
2023-05-14T02:41:36.776Z,11.61
2023-05-14T02:42:08.259Z,11.59
2023-05-14T02:42:39.727Z,11.57
2023-05-14T02:43:11.105Z,11.58
2023-05-14T02:43:42.800Z,11.57
2023-05-14T02:44:14.165Z,11.58
2023-05-14T02:44:45.820Z,11.58
2023-05-14T02:45:17.266Z,11.59
2023-05-14T02:45:48.767Z,11.58
2023-05-14T02:46:20.637Z,11.59
2023-05-14T02:46:52.137Z,11.56
2023-05-14T02:47:23.563Z,11.53
2023-05-14T02:47:55.277Z,11.53
2023-05-14T02:48:26.821Z,11.53
2023-05-14T02:48:58.533Z,11.54
2023-05-14T02:49:29.909Z,11.54
2023-05-14T02:50:01.293Z,11.56
2023-05-14T02:50:32.716Z,11.57
2023-05-14T02:51:04.186Z,11.57
2023-05-14T02:51:35.684Z,11.58
2023-05-14T02:52:07.218Z,11.58
2023-05-14T02:52:38.945Z,11.58
2023-05-14T02:53:10.342Z,11.58
2023-05-14T02:53:41.731Z,11.58
2023-05-14T02:54:13.154Z,11.57
2023-05-14T02:54:44.524Z,11.57
2023-05-14T02:55:16.185Z,11.55
2023-05-14T02:55:47.627Z,11.52
2023-05-14T02:56:19.073Z,11.51
2023-05-14T02:56:50.617Z,11.50
2023-05-14T02:57:22.084Z,11.50
2023-05-14T02:57:53.455Z,11.49
2023-05-14T02:58:27.454Z,11.49
2023-05-14T02:59:00.110Z,11.49
2023-05-14T02:59:31.947Z,11.48
2023-05-14T03:00:04.615Z,11.48
2023-05-14T03:00:36.804Z,11.48
2023-05-14T03:01:08.830Z,11.48
2023-05-14T03:01:40.968Z,11.46
2023-05-14T03:02:12.635Z,11.44
2023-05-14T03:02:44.769Z,11.41
2023-05-14T03:03:16.983Z,11.38
2023-05-14T03:03:49.355Z,11.38
2023-05-14T03:04:21.253Z,11.37
2023-05-14T03:04:52.663Z,11.34
2023-05-14T03:05:24.178Z,11.35
2023-05-14T03:05:58.465Z,11.34
2023-05-14T03:06:29.841Z,11.33
2023-05-14T03:07:01.226Z,11.34
2023-05-14T03:07:32.662Z,11.35
2023-05-14T03:08:04.691Z,11.36
2023-05-14T03:08:36.409Z,11.36
2023-05-14T03:09:08.011Z,11.36
2023-05-14T03:09:39.376Z,11.36
2023-05-14T03:10:10.838Z,11.36
2023-05-14T03:10:42.481Z,11.36
2023-05-14T03:11:13.958Z,11.36
2023-05-14T03:11:45.850Z,11.37
2023-05-14T03:12:18.075Z,11.35
2023-05-14T03:12:49.539Z,11.33
2023-05-14T03:13:21.073Z,11.32
2023-05-14T03:13:52.457Z,11.31
2023-05-14T03:14:23.873Z,11.31
2023-05-14T03:14:55.461Z,11.30
2023-05-14T03:15:26.914Z,11.28
2023-05-14T03:15:58.255Z,11.31
2023-05-14T03:16:29.696Z,11.31
2023-05-14T03:17:01.300Z,11.31
2023-05-14T03:17:33.000Z,11.31
2023-05-14T03:18:04.512Z,11.32
2023-05-14T03:18:36.679Z,11.34
2023-05-14T03:19:09.789Z,11.34
2023-05-14T03:19:41.333Z,11.35
2023-05-14T03:20:13.114Z,11.34
2023-05-14T03:20:44.531Z,11.35
2023-05-14T03:21:16.071Z,11.36
2023-05-14T03:21:47.513Z,11.36
2023-05-14T03:22:19.080Z,11.36
2023-05-14T03:22:50.498Z,11.38
2023-05-14T03:23:21.976Z,11.36
2023-05-14T03:23:53.681Z,11.36
2023-05-14T03:24:25.427Z,11.35
2023-05-14T03:24:57.125Z,11.36
2023-05-14T03:25:28.606Z,11.35
2023-05-14T03:26:00.141Z,11.36
2023-05-14T03:26:31.603Z,11.35
2023-05-14T03:27:03.458Z,11.35
2023-05-14T03:27:35.022Z,11.35
2023-05-14T03:28:06.954Z,11.34
2023-05-14T03:28:38.430Z,11.33
2023-05-14T03:29:10.709Z,11.33
2023-05-14T03:29:43.045Z,11.33
2023-05-14T03:30:14.562Z,11.34
2023-05-14T03:30:46.246Z,11.33
2023-05-14T03:31:17.811Z,11.32
2023-05-14T03:31:50.561Z,11.33
2023-05-14T03:32:22.144Z,11.32
2023-05-14T03:32:53.777Z,11.29
2023-05-14T03:33:25.176Z,11.30
2023-05-14T03:33:56.597Z,11.29
2023-05-14T03:34:28.089Z,11.30
2023-05-14T03:34:59.630Z,11.30
2023-05-14T03:35:31.479Z,11.28
2023-05-14T03:36:03.004Z,11.26
2023-05-14T03:36:36.267Z,11.24
2023-05-14T03:37:07.713Z,11.22
2023-05-14T03:37:39.103Z,11.19
2023-05-14T03:38:10.426Z,11.18
2023-05-14T03:38:41.868Z,11.17
2023-05-14T03:39:15.539Z,11.15
2023-05-14T03:39:46.923Z,11.14
2023-05-14T03:40:18.408Z,11.14
2023-05-14T03:40:49.791Z,11.12
2023-05-14T03:41:21.922Z,11.11
2023-05-14T03:41:53.601Z,11.09
2023-05-14T03:42:24.967Z,11.09
2023-05-14T03:42:56.416Z,11.10
2023-05-14T03:43:27.789Z,11.10
2023-05-14T03:43:59.272Z,11.10
2023-05-14T03:44:30.704Z,11.11
2023-05-14T03:45:02.409Z,11.10
2023-05-14T03:45:33.905Z,11.10
2023-05-14T03:46:05.359Z,11.10
2023-05-14T03:46:36.701Z,11.11
2023-05-14T03:47:08.072Z,11.11
2023-05-14T03:47:39.497Z,11.12
2023-05-14T03:48:11.056Z,11.11
2023-05-14T03:48:42.800Z,11.11
2023-05-14T03:49:14.251Z,11.09
2023-05-14T03:49:45.693Z,11.09
2023-05-14T03:50:17.120Z,11.10
2023-05-14T03:50:48.586Z,11.09
2023-05-14T03:51:19.957Z,11.10
2023-05-14T03:51:51.450Z,11.12
2023-05-14T03:52:22.857Z,11.12
2023-05-14T03:52:54.925Z,11.12
2023-05-14T03:53:26.688Z,11.11
2023-05-14T03:53:58.309Z,11.10
2023-05-14T03:54:29.808Z,11.10
2023-05-14T03:55:01.246Z,11.10
2023-05-14T03:55:32.711Z,11.10
2023-05-14T03:56:04.394Z,11.10
2023-05-14T03:56:35.725Z,11.12
2023-05-14T03:57:07.217Z,11.14
2023-05-14T03:57:38.657Z,11.15
2023-05-14T03:58:13.878Z,11.15
2023-05-14T03:58:45.286Z,11.16
2023-05-14T03:59:16.871Z,11.16
2023-05-14T03:59:48.293Z,11.17
2023-05-14T04:00:19.952Z,11.17
2023-05-14T04:00:51.860Z,11.18
2023-05-14T04:01:25.645Z,11.19
2023-05-14T04:01:57.044Z,11.20
2023-05-14T04:02:28.534Z,11.19
2023-05-14T04:03:00.105Z,11.15
2023-05-14T04:03:31.908Z,11.13
2023-05-14T04:04:03.899Z,11.14
2023-05-14T04:04:35.739Z,11.13
2023-05-14T04:05:07.504Z,11.14
2023-05-14T04:05:38.897Z,11.14
2023-05-14T04:06:10.475Z,11.14
2023-05-14T04:06:41.945Z,11.13
2023-05-14T04:07:13.389Z,11.12
2023-05-14T04:07:46.131Z,11.12
2023-05-14T04:08:17.734Z,11.10
2023-05-14T04:08:49.105Z,11.08
2023-05-14T04:09:20.460Z,11.08
2023-05-14T04:09:52.129Z,11.07
2023-05-14T04:10:23.833Z,11.07
2023-05-14T04:10:55.434Z,11.06
2023-05-14T04:11:26.839Z,11.08
2023-05-14T04:11:58.267Z,11.10
2023-05-14T04:12:29.682Z,11.10
2023-05-14T04:13:01.370Z,11.10
2023-05-14T04:13:32.725Z,11.12
2023-05-14T04:14:04.156Z,11.10
2023-05-14T04:14:35.898Z,11.13
2023-05-14T04:15:08.036Z,11.12
2023-05-14T04:15:39.933Z,11.14
2023-05-14T04:16:11.479Z,11.14
2023-05-14T04:16:43.083Z,11.15
2023-05-14T04:17:14.687Z,11.16
2023-05-14T04:17:46.090Z,11.17
2023-05-14T04:18:17.538Z,11.16
2023-05-14T04:18:49.154Z,11.15
2023-05-14T04:19:20.735Z,11.14
2023-05-14T04:19:52.438Z,11.12
2023-05-14T04:20:23.929Z,11.11
2023-05-14T04:20:55.674Z,11.08
2023-05-14T04:21:27.061Z,11.08
2023-05-14T04:21:58.473Z,11.06
2023-05-14T04:22:29.938Z,11.04
2023-05-14T04:23:01.335Z,11.03
2023-05-14T04:23:32.966Z,11.03
2023-05-14T04:24:04.679Z,11.03
2023-05-14T04:24:36.047Z,11.03
2023-05-14T04:25:07.778Z,11.05
2023-05-14T04:25:39.200Z,11.06
2023-05-14T04:26:10.607Z,11.07
2023-05-14T04:26:41.988Z,11.08
2023-05-14T04:27:20.072Z,11.11
2023-05-14T04:27:51.498Z,11.13
2023-05-14T04:28:23.048Z,11.14
2023-05-14T04:28:54.478Z,11.13
2023-05-14T04:29:25.898Z,11.12
2023-05-14T04:29:57.409Z,11.10
2023-05-14T04:30:28.852Z,11.09
2023-05-14T04:31:00.276Z,11.07
2023-05-14T04:31:32.221Z,11.05
2023-05-14T04:32:04.181Z,11.06
2023-05-14T04:32:35.760Z,11.05
2023-05-14T04:33:07.183Z,11.05
2023-05-14T04:33:38.568Z,11.04
2023-05-14T04:34:10.020Z,11.05
2023-05-14T04:34:41.488Z,11.05
2023-05-14T04:35:13.044Z,11.04
2023-05-14T04:35:45.375Z,11.04
2023-05-14T04:36:17.686Z,11.01
2023-05-14T04:36:49.161Z,11.01
2023-05-14T04:37:20.933Z,11.01
2023-05-14T04:37:52.503Z,11.02
2023-05-14T04:38:23.995Z,11.05
2023-05-14T04:38:55.985Z,11.06
2023-05-14T04:39:27.763Z,11.07
2023-05-14T04:39:59.105Z,11.07
2023-05-14T04:40:31.370Z,11.06
2023-05-14T04:41:02.779Z,11.05
2023-05-14T04:41:34.162Z,11.04
2023-05-14T04:42:06.831Z,11.04
2023-05-14T04:42:39.292Z,11.04
2023-05-14T04:43:13.834Z,11.05
2023-05-14T04:43:47.093Z,11.07
2023-05-14T04:44:18.451Z,11.07
2023-05-14T04:44:49.827Z,11.08
2023-05-14T04:45:21.265Z,11.07
2023-05-14T04:45:52.833Z,11.08
2023-05-14T04:46:24.379Z,11.12
2023-05-14T04:46:56.129Z,11.12
2023-05-14T04:47:27.619Z,11.15
2023-05-14T04:47:59.253Z,11.17
2023-05-14T04:48:30.677Z,11.18
2023-05-14T04:49:02.085Z,11.19
2023-05-14T04:49:33.472Z,11.21
2023-05-14T04:50:06.689Z,11.22
2023-05-14T04:50:38.101Z,11.24
2023-05-14T04:51:09.738Z,11.25
2023-05-14T04:51:41.218Z,11.25
2023-05-14T04:52:12.612Z,11.26
2023-05-14T04:52:44.003Z,11.27
2023-05-14T04:53:15.370Z,11.25
2023-05-14T04:53:46.714Z,11.24
2023-05-14T04:54:18.145Z,11.21
2023-05-14T04:54:50.216Z,11.22
2023-05-14T04:55:22.398Z,11.24
2023-05-14T04:55:54.344Z,11.24
2023-05-14T04:56:26.091Z,11.25
2023-05-14T04:56:57.624Z,11.27
2023-05-14T04:57:29.054Z,11.29
2023-05-14T04:58:00.513Z,11.30
2023-05-14T04:58:34.515Z,11.28
2023-05-14T04:59:06.382Z,11.29
2023-05-14T04:59:37.815Z,11.29
2023-05-14T05:00:10.154Z,11.31
2023-05-14T05:00:41.816Z,11.32
2023-05-14T05:01:13.636Z,11.32
2023-05-14T05:01:45.921Z,11.35
2023-05-14T05:02:17.550Z,11.35
2023-05-14T05:02:48.923Z,11.35
2023-05-14T05:03:20.468Z,11.36
2023-05-14T05:03:52.289Z,11.38
2023-05-14T05:04:24.475Z,11.41
2023-05-14T05:04:55.861Z,11.43
2023-05-14T05:05:27.332Z,11.45
2023-05-14T05:05:58.959Z,11.47
2023-05-14T05:06:30.340Z,11.49
2023-05-14T05:07:01.712Z,11.50
2023-05-14T05:07:33.082Z,11.52
2023-05-14T05:08:04.560Z,11.52
2023-05-14T05:08:36.681Z,11.52
2023-05-14T05:09:09.416Z,11.48
2023-05-14T05:09:40.822Z,11.45
2023-05-14T05:10:12.554Z,11.44
2023-05-14T05:10:43.930Z,11.45
2023-05-14T05:11:15.297Z,11.45
2023-05-14T05:11:46.697Z,11.47
2023-05-14T05:12:18.074Z,11.47
2023-05-14T05:12:49.450Z,11.46
2023-05-14T05:13:20.950Z,11.46
2023-05-14T05:13:52.293Z,11.45
2023-05-14T05:14:23.735Z,11.45
2023-05-14T05:14:55.137Z,11.43
2023-05-14T05:15:26.933Z,11.43
2023-05-14T05:15:58.878Z,11.43
2023-05-14T05:16:30.524Z,11.45
2023-05-14T05:17:02.126Z,11.46
2023-05-14T05:17:33.787Z,11.49
2023-05-14T05:18:05.239Z,11.51
2023-05-14T05:18:36.741Z,11.53
2023-05-14T05:19:08.333Z,11.55
2023-05-14T05:19:43.794Z,11.55
2023-05-14T05:20:15.911Z,11.55
2023-05-14T05:20:47.396Z,11.52
2023-05-14T05:21:18.776Z,11.49
2023-05-14T05:21:51.167Z,11.48
2023-05-14T05:22:23.310Z,11.47
2023-05-14T05:22:54.875Z,11.46
2023-05-14T05:23:26.315Z,11.46
2023-05-14T05:23:57.708Z,11.46
2023-05-14T05:24:29.156Z,11.47
2023-05-14T05:25:00.699Z,11.47
2023-05-14T05:25:32.456Z,11.49
2023-05-14T05:26:03.928Z,11.50
2023-05-14T05:26:38.328Z,11.52
2023-05-14T05:27:09.719Z,11.55
2023-05-14T05:27:41.056Z,11.56
2023-05-14T05:28:12.429Z,11.58
2023-05-14T05:28:44.002Z,11.59
2023-05-14T05:29:15.881Z,11.59
2023-05-14T05:29:47.315Z,11.62
2023-05-14T05:30:19.277Z,11.61
2023-05-14T05:30:50.964Z,11.63
2023-05-14T05:31:22.891Z,11.63
2023-05-14T05:31:54.395Z,11.65
2023-05-14T05:32:25.866Z,11.65
2023-05-14T05:32:57.674Z,11.64
2023-05-14T05:33:29.354Z,11.64
2023-05-14T05:34:01.255Z,11.64
2023-05-14T05:34:32.759Z,11.64
2023-05-14T05:35:04.481Z,11.65
2023-05-14T05:35:35.960Z,11.65
2023-05-14T05:36:07.634Z,11.65
2023-05-14T05:36:39.061Z,11.65
2023-05-14T05:37:12.780Z,11.67
2023-05-14T05:37:45.269Z,11.66
2023-05-14T05:38:18.248Z,11.66
2023-05-14T05:38:49.724Z,11.65
2023-05-14T05:39:21.254Z,11.65
2023-05-14T05:39:53.867Z,11.65
2023-05-14T05:40:25.764Z,11.64
2023-05-14T05:40:57.325Z,11.65
2023-05-14T05:41:29.994Z,11.66
2023-05-14T05:42:04.873Z,11.67
2023-05-14T05:42:36.370Z,11.67
2023-05-14T05:43:07.746Z,11.68
2023-05-14T05:43:39.299Z,11.69
2023-05-14T05:44:10.744Z,11.70
2023-05-14T05:44:42.153Z,11.72
2023-05-14T05:45:13.555Z,11.71
2023-05-14T05:45:46.014Z,11.70
2023-05-14T05:46:17.541Z,11.68
2023-05-14T05:46:48.986Z,11.67
2023-05-14T05:47:20.517Z,11.67
2023-05-14T05:47:51.963Z,11.67
2023-05-14T05:48:23.399Z,11.66
2023-05-14T05:48:54.820Z,11.67
2023-05-14T05:49:26.210Z,11.69
2023-05-14T05:49:57.824Z,11.71
2023-05-14T05:50:30.171Z,11.70
2023-05-14T05:51:01.638Z,11.71
2023-05-14T05:51:33.219Z,11.72
2023-05-14T05:52:05.168Z,11.73
2023-05-14T05:52:36.777Z,11.75
2023-05-14T05:53:08.199Z,11.75
2023-05-14T05:53:39.769Z,11.75
2023-05-14T05:54:11.310Z,11.74
2023-05-14T05:54:42.697Z,11.75
2023-05-14T05:55:14.069Z,11.76
2023-05-14T05:55:45.541Z,11.75
2023-05-14T05:56:16.967Z,11.77
2023-05-14T05:56:48.382Z,11.79
2023-05-14T05:57:19.764Z,11.79
2023-05-14T05:57:51.296Z,11.80
2023-05-14T05:58:22.646Z,11.80
2023-05-14T05:58:54.081Z,11.80
2023-05-14T05:59:25.580Z,11.80
2023-05-14T05:59:56.938Z,11.81
2023-05-14T06:00:28.416Z,11.81
2023-05-14T06:01:00.199Z,11.80
2023-05-14T06:01:32.166Z,11.81
2023-05-14T06:02:03.733Z,11.82
2023-05-14T06:02:35.210Z,11.81
2023-05-14T06:03:07.180Z,11.83
2023-05-14T06:03:38.562Z,11.86
2023-05-14T06:04:10.173Z,11.86
2023-05-14T06:04:41.663Z,11.85
2023-05-14T06:05:13.216Z,11.86
2023-05-14T06:05:45.031Z,11.85
2023-05-14T06:06:16.616Z,11.83
2023-05-14T06:06:48.080Z,11.81
2023-05-14T06:07:19.485Z,11.79
2023-05-14T06:07:50.906Z,11.77
2023-05-14T06:08:22.521Z,11.75
2023-05-14T06:08:54.009Z,11.75
2023-05-14T06:09:25.460Z,11.74
2023-05-14T06:09:56.801Z,11.74
2023-05-14T06:10:28.350Z,11.73
2023-05-14T06:10:59.722Z,11.76
2023-05-14T06:11:31.048Z,11.79
2023-05-14T06:12:02.407Z,11.83
2023-05-14T06:12:33.803Z,11.86
2023-05-14T06:13:05.301Z,11.89
2023-05-14T06:13:36.660Z,11.92
2023-05-14T06:14:08.075Z,11.95
2023-05-14T06:14:39.473Z,11.95
2023-05-14T06:15:12.076Z,11.96
2023-05-14T06:15:43.827Z,11.96
2023-05-14T06:16:15.238Z,11.97
2023-05-14T06:16:46.712Z,11.98
2023-05-14T06:17:18.266Z,12.00
2023-05-14T06:17:49.703Z,12.01
2023-05-14T06:18:21.241Z,12.02
2023-05-14T06:18:53.140Z,12.03
2023-05-14T06:19:24.599Z,12.05
2023-05-14T06:19:55.936Z,12.07
2023-05-14T06:20:27.368Z,12.08
2023-05-14T06:21:00.373Z,12.10
2023-05-14T06:21:32.021Z,12.14
2023-05-14T06:22:03.522Z,12.16
2023-05-14T06:22:35.022Z,12.18
2023-05-14T06:23:07.698Z,12.20
2023-05-14T06:23:39.115Z,12.23
2023-05-14T06:24:10.872Z,12.23
2023-05-14T06:24:42.280Z,12.26
2023-05-14T06:25:13.654Z,12.27
2023-05-14T06:25:45.026Z,12.29
2023-05-14T06:26:16.517Z,12.30
2023-05-14T06:26:49.369Z,12.31
2023-05-14T06:27:20.779Z,12.34
2023-05-14T06:27:52.206Z,12.35
2023-05-14T06:28:23.711Z,12.38
2023-05-14T06:28:55.271Z,12.39
2023-05-14T06:29:26.729Z,12.43
2023-05-14T06:29:58.093Z,12.43
2023-05-14T06:30:29.707Z,12.45
2023-05-14T06:31:01.177Z,12.44
2023-05-14T06:31:32.763Z,12.45
2023-05-14T06:32:05.102Z,12.47
2023-05-14T06:32:37.065Z,12.47
2023-05-14T06:33:08.481Z,12.47
2023-05-14T06:33:40.047Z,12.48
2023-05-14T06:34:11.499Z,12.53
2023-05-14T06:34:43.407Z,12.56
2023-05-14T06:35:14.827Z,12.60
2023-05-14T06:35:46.302Z,12.63
2023-05-14T06:36:17.673Z,12.68
2023-05-14T06:36:49.093Z,12.71
2023-05-14T06:37:20.591Z,12.73
2023-05-14T06:37:52.047Z,12.76
2023-05-14T06:38:23.450Z,12.77
2023-05-14T06:38:54.837Z,12.77
2023-05-14T06:39:26.186Z,12.77
2023-05-14T06:39:58.118Z,12.78
2023-05-14T06:40:29.578Z,12.82
2023-05-14T06:41:01.160Z,12.83
2023-05-14T06:41:33.012Z,12.85
2023-05-14T06:42:05.100Z,12.86
2023-05-14T06:42:36.716Z,12.86
2023-05-14T06:43:08.084Z,12.86
2023-05-14T06:43:39.446Z,12.88
2023-05-14T06:44:10.984Z,12.88
2023-05-14T06:44:42.840Z,12.90
2023-05-14T06:45:14.264Z,12.92
2023-05-14T06:45:48.847Z,12.93
2023-05-14T06:46:20.202Z,12.93
2023-05-14T06:46:52.048Z,12.94
2023-05-14T06:47:23.544Z,12.95
2023-05-14T06:47:55.595Z,12.95
2023-05-14T06:48:29.395Z,12.97
2023-05-14T06:49:01.156Z,13.00
2023-05-14T06:49:33.260Z,13.03
2023-05-14T06:50:05.071Z,13.05
2023-05-14T06:50:36.506Z,13.06
2023-05-14T06:51:08.006Z,13.05
2023-05-14T06:51:40.726Z,13.05
2023-05-14T06:52:12.186Z,13.07
2023-05-14T06:52:44.873Z,13.08
2023-05-14T06:53:16.333Z,13.08
2023-05-14T06:53:48.764Z,13.10
2023-05-14T06:54:20.584Z,13.12
2023-05-14T06:54:51.960Z,13.14